Snake River Valley :: SLCFashionPlaceA1

liberation: 2021-10-10  08:00     latitude: 40.633407     longitude: -111.884478 39 birds
# LOFT PRING MILES ARRIVAL SPEED ToWin
1 M&T Wall AU21-SRV-0039 207.203 2021-10-10 11:56:04.310 1544.770 00:00:00
2 M&T Wall AU21-SRV-0019 207.203 2021-10-10 11:56:05.371 1544.654 00:00:01
3 M&T Wall AU21-SRV-0013 207.203 2021-10-10 11:56:06.220 1544.562 00:00:02
4 M&T Wall AU21-SRV-0357 207.203 2021-10-10 11:56:06.605 1544.520 00:00:02
5 M&T Wall AU21-SRV-0011 207.203 2021-10-10 11:56:06.731 1544.506 00:00:02
6 M&T Wall AU21-SRV-0034 207.203 2021-10-10 11:56:06.866 1544.491 00:00:03
7 M&T Wall AU21-SRV-0020 207.203 2021-10-10 11:56:07.263 1544.448 00:00:03
8 M&T Wall AU21-SRV-0045 207.203 2021-10-10 11:56:07.647 1544.406 00:00:03
9 M&T Wall AU21-SRV-0016 207.203 2021-10-10 11:56:08.906 1544.269 00:00:05
10 M&T Wall AU21-SRV-0037 207.203 2021-10-10 11:56:09.423 1544.212 00:00:05
11 M&T Wall AU21-SRV-0023 207.203 2021-10-10 11:56:12.680 1543.858 00:00:08
12 M&T Wall AU21-SRV-0049 207.203 2021-10-10 11:56:15.272 1543.575 00:00:11
13 M&T Wall AU21-SRV-0365 207.203 2021-10-10 12:02:41.997 1502.582 00:06:38
14 M&T Wall AU21-SRV-0006 207.203 2021-10-10 12:02:42.626 1502.517 00:06:38
15 M&T Wall AU21-SRV-0371 207.203 2021-10-10 12:02:43.469 1502.430 00:06:39
16 M&T Wall AU21-SRV-0004 207.203 2021-10-10 12:02:44.208 1502.354 00:06:40
17 M&T Wall AU21-SRV-0022 207.203 2021-10-10 12:02:45.576 1502.213 00:06:41
18 M&T Wall AU21-SRV-0021 207.203 2021-10-10 12:02:48.502 1501.911 00:06:44
19 Acorn Loft AU21-ARPU-1725 196.495 2021-10-10 11:59:06.492 1446.336 00:15:14
20 Acorn Loft AU21-ARPU-1717 196.495 2021-10-10 11:59:20.752 1444.899 00:15:28
21 Acorn Loft AU21-ARPU-1722 196.495 2021-10-10 12:00:26.063 1438.358 00:16:34
22 M&T Wall AU21-SRV-0007 207.203 2021-10-10 12:20:58.922 1397.325 00:24:55
23 M&T Wall AU21-SRV-0050 207.203 2021-10-10 12:25:43.221 1372.408 00:29:39
24 Acorn Loft AU21-ARPU-1732 196.495 2021-10-10 13:16:55.484 1091.208 01:33:03
AU21-SRV-0203 0 0000-00-00 00:00:00.000 0.000 00:00:00
AU21-SRV-0204 0 0000-00-00 00:00:00.000 0.000 00:00:00
AU21-SRV-0207 0 0000-00-00 00:00:00.000 0.000 00:00:00
AU21-SRV-0211 0 0000-00-00 00:00:00.000 0.000 00:00:00
AU21-SRV-0212 0 0000-00-00 00:00:00.000 0.000 00:00:00
AU21-SRV-0214 0 0000-00-00 00:00:00.000 0.000 00:00:00
AU21-SRV-0227 0 0000-00-00 00:00:00.000 0.000 00:00:00
AU21-SRV-0234 0 0000-00-00 00:00:00.000 0.000 00:00:00
AU21-SRV-0238 0 0000-00-00 00:00:00.000 0.000 00:00:00
AU21-SRV-0241 0 0000-00-00 00:00:00.000 0.000 00:00:00
M&T Wall AU21-SRV-0003 0 0000-00-00 00:00:00.000 0.000 00:00:00
M&T Wall AU21-SRV-0025 0 0000-00-00 00:00:00.000 0.000 00:00:00
M&T Wall AU21-SRV-0033 0 0000-00-00 00:00:00.000 0.000 00:00:00
M&T Wall AU21-SRV-0038 0 0000-00-00 00:00:00.000 0.000 00:00:00
M&T Wall AU21-SRV-0370 0 0000-00-00 00:00:00.000 0.000 00:00:00